Austin, Texas
Traffic Map
Current Weather Conditions
Austin, Texas
Clear
Clear
81°
Feels Like: 85°
Wind Chill: 81° Ceiling: Unl
Heat Index: 85° Visibility: 10mi
Dew Point: 72° Wind: 6mph
Humidity: 74% Direction: 210° (SSW)
Pressure: 29.88in Gusts: 0mph
Raw Report DataKATT 230851Z AUTO 21005KT 10SM CLR 27/22 A2988 RMK AO2 SLP099 T02720222 56008
Traffic Incident Summary
Active as of:
Severity:
Category:
InformationThere was an issue retrieving the traffic information for this location. Please try a different location or try again shortly.
Advertisements